sensor_id;sensor_type;location;lat;lon;timestamp;pressure;altitude;pressure_sealevel;temperature;humidity
77003;BME280;65939;50.060;14.288;2024-01-10T00:01:09;98619.03;;;-7.68;76.18
77003;BME280;65939;50.060;14.288;2024-01-10T00:03:10;98608.03;;;-7.67;76.46
77003;BME280;65939;50.060;14.288;2024-01-10T00:05:11;98612.25;;;-7.64;76.02
77003;BME280;65939;50.060;14.288;2024-01-10T00:07:12;98608.03;;;-7.64;75.95
77003;BME280;65939;50.060;14.288;2024-01-10T00:09:12;98604.63;;;-7.63;75.75
77003;BME280;65939;50.060;14.288;2024-01-10T00:11:13;98608.03;;;-7.64;75.80
77003;BME280;65939;50.060;14.288;2024-01-10T00:13:13;98608.84;;;-7.63;75.96
77003;BME280;65939;50.060;14.288;2024-01-10T00:15:14;98602.13;;;-7.64;75.58
77003;BME280;65939;50.060;14.288;2024-01-10T00:17:15;98607.19;;;-7.64;75.53
77003;BME280;65939;50.060;14.288;2024-01-10T00:19:15;98593.66;;;-7.63;75.68
77003;BME280;65939;50.060;14.288;2024-01-10T00:21:16;98598.69;;;-7.62;75.58
77003;BME280;65939;50.060;14.288;2024-01-10T00:23:17;98590.25;;;-7.61;75.16
77003;BME280;65939;50.060;14.288;2024-01-10T00:25:17;98597.88;;;-7.61;75.03
77003;BME280;65939;50.060;14.288;2024-01-10T00:27:18;98595.31;;;-7.62;75.48
77003;BME280;65939;50.060;14.288;2024-01-10T00:29:19;98595.31;;;-7.61;75.01
77003;BME280;65939;50.060;14.288;2024-01-10T00:31:19;98597.00;;;-7.61;74.80
77003;BME280;65939;50.060;14.288;2024-01-10T00:33:20;98594.47;;;-7.61;75.01
77003;BME280;65939;50.060;14.288;2024-01-10T00:35:21;98591.91;;;-7.61;74.74
77003;BME280;65939;50.060;14.288;2024-01-10T00:37:21;98587.72;;;-7.61;74.41
77003;BME280;65939;50.060;14.288;2024-01-10T00:39:22;98587.72;;;-7.62;74.69
77003;BME280;65939;50.060;14.288;2024-01-10T00:41:23;98585.19;;;-7.61;74.28
77003;BME280;65939;50.060;14.288;2024-01-10T00:43:23;98591.91;;;-7.61;74.39
77003;BME280;65939;50.060;14.288;2024-01-10T00:45:24;98589.38;;;-7.61;74.33
77003;BME280;65939;50.060;14.288;2024-01-10T00:47:25;98598.69;;;-7.62;74.27
77003;BME280;65939;50.060;14.288;2024-01-10T00:49:25;98588.56;;;-7.60;73.91
77003;BME280;65939;50.060;14.288;2024-01-10T00:51:26;98592.78;;;-7.61;73.73
77003;BME280;65939;50.060;14.288;2024-01-10T00:53:26;98589.38;;;-7.61;73.84
77003;BME280;65939;50.060;14.288;2024-01-10T00:55:27;98587.69;;;-7.59;73.70
77003;BME280;65939;50.060;14.288;2024-01-10T00:57:28;98580.13;;;-7.61;73.51
77003;BME280;65939;50.060;14.288;2024-01-10T00:59:28;98587.72;;;-7.62;74.00
77003;BME280;65939;50.060;14.288;2024-01-10T01:01:29;98587.72;;;-7.62;73.68
77003;BME280;65939;50.060;14.288;2024-01-10T01:03:30;98590.28;;;-7.64;73.63
77003;BME280;65939;50.060;14.288;2024-01-10T01:05:31;98591.91;;;-7.61;73.67
77003;BME280;65939;50.060;14.288;2024-01-10T01:07:31;98591.94;;;-7.63;73.63
77003;BME280;65939;50.060;14.288;2024-01-10T01:09:33;98582.66;;;-7.62;73.71
77003;BME280;65939;50.060;14.288;2024-01-10T01:11:34;98596.19;;;-7.63;73.31
77003;BME280;65939;50.060;14.288;2024-01-10T01:13:34;98591.09;;;-7.62;73.35
77003;BME280;65939;50.060;14.288;2024-01-10T01:15:35;98593.69;;;-7.68;73.20
77003;BME280;65939;50.060;14.288;2024-01-10T01:17:36;98592.06;;;-7.75;73.38
77003;BME280;65939;50.060;14.288;2024-01-10T01:19:37;98597.19;;;-7.84;73.52
77003;BME280;65939;50.060;14.288;2024-01-10T01:21:38;98602.28;;;-7.93;73.43
77003;BME280;65939;50.060;14.288;2024-01-10T01:23:38;98596.44;;;-8.00;74.20
77003;BME280;65939;50.060;14.288;2024-01-10T01:25:39;98600.69;;;-8.05;74.17
77003;BME280;65939;50.060;14.288;2024-01-10T01:27:40;98604.09;;;-8.11;74.44
77003;BME280;65939;50.060;14.288;2024-01-10T01:29:41;98604.94;;;-8.15;74.76
77003;BME280;65939;50.060;14.288;2024-01-10T01:31:41;98604.97;;;-8.20;74.68
77003;BME280;65939;50.060;14.288;2024-01-10T01:33:42;98604.16;;;-8.26;75.17
77003;BME280;65939;50.060;14.288;2024-01-10T01:35:42;98611.81;;;-8.34;75.02
77003;BME280;65939;50.060;14.288;2024-01-10T01:37:43;98610.19;;;-8.41;75.19
77003;BME280;65939;50.060;14.288;2024-01-10T01:39:44;98602.59;;;-8.47;75.63
77003;BME280;65939;50.060;14.288;2024-01-10T01:41:44;98611.91;;;-8.51;75.81
77003;BME280;65939;50.060;14.288;2024-01-10T01:43:45;98606.88;;;-8.55;75.80
77003;BME280;65939;50.060;14.288;2024-01-10T01:45:46;98606.91;;;-8.60;75.97
77003;BME280;65939;50.060;14.288;2024-01-10T01:47:47;98605.22;;;-8.64;76.12
77003;BME280;65939;50.060;14.288;2024-01-10T01:49:48;98602.69;;;-8.67;76.28
77003;BME280;65939;50.060;14.288;2024-01-10T01:51:49;98590.91;;;-8.71;76.40
77003;BME280;65939;50.060;14.288;2024-01-10T01:53:50;98601.88;;;-8.74;76.50
77003;BME280;65939;50.060;14.288;2024-01-10T01:55:52;98597.66;;;-8.73;76.53
77003;BME280;65939;50.060;14.288;2024-01-10T01:57:52;98596.81;;;-8.77;76.81
77003;BME280;65939;50.060;14.288;2024-01-10T01:59:53;98597.69;;;-8.81;76.59
77003;BME280;65939;50.060;14.288;2024-01-10T02:01:54;98596.00;;;-8.82;76.87
77003;BME280;65939;50.060;14.288;2024-01-10T02:03:56;98595.16;;;-8.84;77.23
77003;BME280;65939;50.060;14.288;2024-01-10T02:05:57;98593.47;;;-8.85;77.25
77003;BME280;65939;50.060;14.288;2024-01-10T02:07:58;98596.00;;;-8.85;77.41
77003;BME280;65939;50.060;14.288;2024-01-10T02:09:58;98593.50;;;-8.91;77.02
77003;BME280;65939;50.060;14.288;2024-01-10T02:11:59;98589.28;;;-8.95;77.40
77003;BME280;65939;50.060;14.288;2024-01-10T02:14:00;98596.03;;;-8.99;77.49
77003;BME280;65939;50.060;14.288;2024-01-10T02:16:03;98585.94;;;-9.02;77.59
77003;BME280;65939;50.060;14.288;2024-01-10T02:18:04;98590.16;;;-9.02;77.52
77003;BME280;65939;50.060;14.288;2024-01-10T02:20:09;98588.47;;;-9.03;77.71
77003;BME280;65939;50.060;14.288;2024-01-10T02:22:10;98591.84;;;-9.04;77.78
77003;BME280;65939;50.060;14.288;2024-01-10T02:24:11;98586.78;;;-9.06;78.02
77003;BME280;65939;50.060;14.288;2024-01-10T02:26:14;98581.72;;;-9.07;78.21
77003;BME280;65939;50.060;14.288;2024-01-10T02:28:15;98575.81;;;-9.08;78.14
77003;BME280;65939;50.060;14.288;2024-01-10T02:30:16;98583.41;;;-9.08;78.29
77003;BME280;65939;50.060;14.288;2024-01-10T02:32:16;98585.94;;;-9.09;78.38
77003;BME280;65939;50.060;14.288;2024-01-10T02:34:17;98585.09;;;-9.11;78.05
77003;BME280;65939;50.060;14.288;2024-01-10T02:36:17;98583.44;;;-9.14;78.22
77003;BME280;65939;50.060;14.288;2024-01-10T02:38:18;98584.25;;;-9.18;78.24
77003;BME280;65939;50.060;14.288;2024-01-10T02:40:23;98582.59;;;-9.22;78.46
77003;BME280;65939;50.060;14.288;2024-01-10T02:42:24;98581.75;;;-9.26;78.77
77003;BME280;65939;50.060;14.288;2024-01-10T02:44:25;98580.09;;;-9.31;78.78
77003;BME280;65939;50.060;14.288;2024-01-10T02:46:25;98583.47;;;-9.35;78.71
77003;BME280;65939;50.060;14.288;2024-01-10T02:48:28;98579.25;;;-9.41;78.95
77003;BME280;65939;50.060;14.288;2024-01-10T02:50:28;98576.75;;;-9.46;79.26
77003;BME280;65939;50.060;14.288;2024-01-10T02:52:29;98579.28;;;-9.49;79.15
77003;BME280;65939;50.060;14.288;2024-01-10T02:54:29;98574.19;;;-9.53;79.01
77003;BME280;65939;50.060;14.288;2024-01-10T02:56:30;98570.81;;;-9.57;79.35
77003;BME280;65939;50.060;14.288;2024-01-10T02:58:31;98571.69;;;-9.59;79.40
77003;BME280;65939;50.060;14.288;2024-01-10T03:00:31;98562.44;;;-9.63;79.52
77003;BME280;65939;50.060;14.288;2024-01-10T03:02:32;98566.63;;;-9.69;79.26
77003;BME280;65939;50.060;14.288;2024-01-10T03:04:33;98562.44;;;-9.74;79.35
77003;BME280;65939;50.060;14.288;2024-01-10T03:06:33;98566.66;;;-9.78;79.53
77003;BME280;65939;50.060;14.288;2024-01-10T03:08:34;98558.22;;;-9.81;79.69
77003;BME280;65939;50.060;14.288;2024-01-10T03:10:35;98554.84;;;-9.85;79.78
77003;BME280;65939;50.060;14.288;2024-01-10T03:12:35;98564.09;;;-9.87;79.83
77003;BME280;65939;50.060;14.288;2024-01-10T03:14:38;98554.84;;;-9.88;80.20
77003;BME280;65939;50.060;14.288;2024-01-10T03:16:38;98559.88;;;-9.86;80.21
77003;BME280;65939;50.060;14.288;2024-01-10T03:18:39;98560.72;;;-9.86;80.31
77003;BME280;65939;50.060;14.288;2024-01-10T03:20:40;98552.31;;;-9.86;80.32
77003;BME280;65939;50.060;14.288;2024-01-10T03:22:40;98555.69;;;-9.86;80.42
77003;BME280;65939;50.060;14.288;2024-01-10T03:24:41;98552.31;;;-9.88;80.37
77003;BME280;65939;50.060;14.288;2024-01-10T03:26:42;98549.78;;;-9.88;80.31
77003;BME280;65939;50.060;14.288;2024-01-10T03:28:43;98543.91;;;-9.87;80.61
77003;BME280;65939;50.060;14.288;2024-01-10T03:30:44;98545.59;;;-9.84;80.74
77003;BME280;65939;50.060;14.288;2024-01-10T03:32:45;98545.56;;;-9.83;80.69
77003;BME280;65939;50.060;14.288;2024-01-10T03:34:46;98555.69;;;-9.80;80.44
77003;BME280;65939;50.060;14.288;2024-01-10T03:36:46;98550.63;;;-9.77;80.92
77003;BME280;65939;50.060;14.288;2024-01-10T03:38:47;98547.28;;;-9.74;80.69
77003;BME280;65939;50.060;14.288;2024-01-10T03:40:48;98544.72;;;-9.73;80.59
77003;BME280;65939;50.060;14.288;2024-01-10T03:42:48;98531.25;;;-9.72;80.23
77003;BME280;65939;50.060;14.288;2024-01-10T03:44:49;98536.31;;;-9.72;80.27
77003;BME280;65939;50.060;14.288;2024-01-10T03:46:49;98532.94;;;-9.69;80.22
77003;BME280;65939;50.060;14.288;2024-01-10T03:48:50;98537.97;;;-9.68;80.21
77003;BME280;65939;50.060;14.288;2024-01-10T03:50:52;98541.38;;;-9.66;80.27
77003;BME280;65939;50.060;14.288;2024-01-10T03:52:53;98537.16;;;-9.63;80.21
77003;BME280;65939;50.060;14.288;2024-01-10T03:54:54;98536.28;;;-9.61;80.07
77003;BME280;65939;50.060;14.288;2024-01-10T03:56:55;98528.72;;;-9.62;80.08
77003;BME280;65939;50.060;14.288;2024-01-10T03:58:56;98535.47;;;-9.58;79.79
77003;BME280;65939;50.060;14.288;2024-01-10T04:00:56;98528.72;;;-9.56;79.97
77003;BME280;65939;50.060;14.288;2024-01-10T04:02:57;98532.09;;;-9.54;79.55
77003;BME280;65939;50.060;14.288;2024-01-10T04:04:58;98526.16;;;-9.53;79.50
77003;BME280;65939;50.060;14.288;2024-01-10T04:06:58;98532.94;;;-9.52;79.51
77003;BME280;65939;50.060;14.288;2024-01-10T04:08:59;98526.16;;;-9.50;79.34
77003;BME280;65939;50.060;14.288;2024-01-10T04:11:00;98529.53;;;-9.50;79.07
77003;BME280;65939;50.060;14.288;2024-01-10T04:13:00;98527.88;;;-9.49;79.15
77003;BME280;65939;50.060;14.288;2024-01-10T04:15:01;98527.00;;;-9.50;79.09
77003;BME280;65939;50.060;14.288;2024-01-10T04:17:03;98524.50;;;-9.48;78.82
77003;BME280;65939;50.060;14.288;2024-01-10T04:19:05;98528.72;;;-9.49;78.88
77003;BME280;65939;50.060;14.288;2024-01-10T04:21:06;98516.91;;;-9.47;78.65
77003;BME280;65939;50.060;14.288;2024-01-10T04:23:07;98520.25;;;-9.46;78.52
77003;BME280;65939;50.060;14.288;2024-01-10T04:25:08;98522.81;;;-9.45;78.48
77003;BME280;65939;50.060;14.288;2024-01-10T04:27:09;98525.31;;;-9.43;78.50
77003;BME280;65939;50.060;14.288;2024-01-10T04:29:09;98523.66;;;-9.44;78.52
77003;BME280;65939;50.060;14.288;2024-01-10T04:31:10;98522.78;;;-9.43;78.80
77003;BME280;65939;50.060;14.288;2024-01-10T04:33:11;98522.78;;;-9.43;78.24
77003;BME280;65939;50.060;14.288;2024-01-10T04:35:11;98518.56;;;-9.43;78.32
77003;BME280;65939;50.060;14.288;2024-01-10T04:37:12;98521.94;;;-9.44;78.22
77003;BME280;65939;50.060;14.288;2024-01-10T04:39:14;98516.91;;;-9.44;78.17
77003;BME280;65939;50.060;14.288;2024-01-10T04:41:14;98516.91;;;-9.47;77.94
77003;BME280;65939;50.060;14.288;2024-01-10T04:43:15;98518.59;;;-9.49;78.11
77003;BME280;65939;50.060;14.288;2024-01-10T04:45:16;98521.97;;;-9.51;78.54
77003;BME280;65939;50.060;14.288;2024-01-10T04:47:16;98521.13;;;-9.53;78.32
77003;BME280;65939;50.060;14.288;2024-01-10T04:49:17;98518.63;;;-9.59;77.98
77003;BME280;65939;50.060;14.288;2024-01-10T04:51:18;98516.09;;;-9.66;78.40
77003;BME280;65939;50.060;14.288;2024-01-10T04:53:18;98528.75;;;-9.70;78.60
77003;BME280;65939;50.060;14.288;2024-01-10T04:55:19;98527.03;;;-9.76;78.44
77003;BME280;65939;50.060;14.288;2024-01-10T04:57:19;98521.13;;;-9.75;79.03
77003;BME280;65939;50.060;14.288;2024-01-10T04:59:20;98527.06;;;-9.74;78.95
77003;BME280;65939;50.060;14.288;2024-01-10T05:01:21;98524.53;;;-9.76;78.95
77003;BME280;65939;50.060;14.288;2024-01-10T05:03:22;98529.59;;;-9.74;79.26
77003;BME280;65939;50.060;14.288;2024-01-10T05:05:22;98527.91;;;-9.74;79.40
77003;BME280;65939;50.060;14.288;2024-01-10T05:07:24;98529.56;;;-9.73;79.13
77003;BME280;65939;50.060;14.288;2024-01-10T05:09:25;98533.78;;;-9.72;79.08
77003;BME280;65939;50.060;14.288;2024-01-10T05:11:26;98534.63;;;-9.73;79.43
77003;BME280;65939;50.060;14.288;2024-01-10T05:13:26;98538.84;;;-9.72;79.36
77003;BME280;65939;50.060;14.288;2024-01-10T05:15:27;98539.69;;;-9.73;79.49
77003;BME280;65939;50.060;14.288;2024-01-10T05:17:28;98536.31;;;-9.73;79.43
77003;BME280;65939;50.060;14.288;2024-01-10T05:19:28;98537.13;;;-9.71;79.75
77003;BME280;65939;50.060;14.288;2024-01-10T05:21:33;98531.25;;;-9.69;79.56
77003;BME280;65939;50.060;14.288;2024-01-10T05:23:34;98538.84;;;-9.69;79.27
77003;BME280;65939;50.060;14.288;2024-01-10T05:25:35;98540.50;;;-9.68;79.39
77003;BME280;65939;50.060;14.288;2024-01-10T05:27:37;98542.22;;;-9.67;79.23
77003;BME280;65939;50.060;14.288;2024-01-10T05:29:37;98540.53;;;-9.66;79.58
77003;BME280;65939;50.060;14.288;2024-01-10T05:31:38;98532.94;;;-9.65;79.15
77003;BME280;65939;50.060;14.288;2024-01-10T05:33:38;98543.03;;;-9.65;79.24
77003;BME280;65939;50.060;14.288;2024-01-10T05:35:39;98532.09;;;-9.65;78.91
77003;BME280;65939;50.060;14.288;2024-01-10T05:37:40;98529.59;;;-9.63;79.47
77003;BME280;65939;50.060;14.288;2024-01-10T05:39:40;98532.09;;;-9.63;78.99
77003;BME280;65939;50.060;14.288;2024-01-10T05:41:41;98527.91;;;-9.63;79.25
77003;BME280;65939;50.060;14.288;2024-01-10T05:43:44;98528.72;;;-9.62;79.08
77003;BME280;65939;50.060;14.288;2024-01-10T05:45:44;98527.88;;;-9.61;78.96
77003;BME280;65939;50.060;14.288;2024-01-10T05:47:45;98526.19;;;-9.62;79.19
77003;BME280;65939;50.060;14.288;2024-01-10T05:49:48;98527.88;;;-9.61;79.21
77003;BME280;65939;50.060;14.288;2024-01-10T05:51:49;98514.41;;;-9.62;79.09
77003;BME280;65939;50.060;14.288;2024-01-10T05:53:50;98521.13;;;-9.61;79.31
77003;BME280;65939;50.060;14.288;2024-01-10T05:55:51;98521.16;;;-9.59;79.09
77003;BME280;65939;50.060;14.288;2024-01-10T05:57:52;98523.69;;;-9.59;78.87
77003;BME280;65939;50.060;14.288;2024-01-10T05:59:53;98517.78;;;-9.58;79.00
77003;BME280;65939;50.060;14.288;2024-01-10T06:01:57;98523.69;;;-9.59;78.97
77003;BME280;65939;50.060;14.288;2024-01-10T06:03:59;98517.78;;;-9.60;79.14
77003;BME280;65939;50.060;14.288;2024-01-10T06:05:59;98522.81;;;-9.61;78.92
77003;BME280;65939;50.060;14.288;2024-01-10T06:08:00;98531.25;;;-9.59;78.77
77003;BME280;65939;50.060;14.288;2024-01-10T06:10:05;98521.97;;;-9.60;79.05
77003;BME280;65939;50.060;14.288;2024-01-10T06:12:06;98524.50;;;-9.59;79.11
77003;BME280;65939;50.060;14.288;2024-01-10T06:14:07;98529.56;;;-9.62;78.88
77003;BME280;65939;50.060;14.288;2024-01-10T06:16:08;98522.81;;;-9.61;79.05
77003;BME280;65939;50.060;14.288;2024-01-10T06:18:08;98515.25;;;-9.65;79.03
77003;BME280;65939;50.060;14.288;2024-01-10T06:20:10;98514.41;;;-9.65;79.13
77003;BME280;65939;50.060;14.288;2024-01-10T06:22:10;98523.66;;;-9.64;79.12
77003;BME280;65939;50.060;14.288;2024-01-10T06:24:14;98529.59;;;-9.67;78.56
77003;BME280;65939;50.060;14.288;2024-01-10T06:26:14;98527.91;;;-9.71;78.88
77003;BME280;65939;50.060;14.288;2024-01-10T06:28:15;98526.22;;;-9.73;79.00
77003;BME280;65939;50.060;14.288;2024-01-10T06:30:16;98522.81;;;-9.75;78.98
77003;BME280;65939;50.060;14.288;2024-01-10T06:32:17;98527.03;;;-9.76;78.72
77003;BME280;65939;50.060;14.288;2024-01-10T06:34:17;98523.69;;;-9.76;79.51
77003;BME280;65939;50.060;14.288;2024-01-10T06:36:18;98527.91;;;-9.77;79.19
77003;BME280;65939;50.060;14.288;2024-01-10T06:38:18;98529.56;;;-9.79;78.97
77003;BME280;65939;50.060;14.288;2024-01-10T06:40:21;98526.22;;;-9.79;79.06
77003;BME280;65939;50.060;14.288;2024-01-10T06:42:22;98521.16;;;-9.81;79.06
77003;BME280;65939;50.060;14.288;2024-01-10T06:44:22;98520.34;;;-9.81;79.13
77003;BME280;65939;50.060;14.288;2024-01-10T06:46:23;98516.94;;;-9.82;79.05
77003;BME280;65939;50.060;14.288;2024-01-10T06:48:24;98524.50;;;-9.82;79.11
77003;BME280;65939;50.060;14.288;2024-01-10T06:50:24;98524.50;;;-9.82;79.10
77003;BME280;65939;50.060;14.288;2024-01-10T06:52:25;98519.47;;;-9.80;79.09
77003;BME280;65939;50.060;14.288;2024-01-10T06:54:26;98516.94;;;-9.79;78.88
77003;BME280;65939;50.060;14.288;2024-01-10T06:56:27;98521.16;;;-9.76;79.04
77003;BME280;65939;50.060;14.288;2024-01-10T06:58:27;98532.94;;;-9.74;79.17
77003;BME280;65939;50.060;14.288;2024-01-10T07:00:28;98530.44;;;-9.74;79.02
77003;BME280;65939;50.060;14.288;2024-01-10T07:02:29;98527.91;;;-9.74;78.80
77003;BME280;65939;50.060;14.288;2024-01-10T07:04:29;98532.94;;;-9.75;78.77
77003;BME280;65939;50.060;14.288;2024-01-10T07:06:31;98531.25;;;-9.75;78.94
77003;BME280;65939;50.060;14.288;2024-01-10T07:08:32;98536.31;;;-9.72;79.00
77003;BME280;65939;50.060;14.288;2024-01-10T07:10:33;98535.47;;;-9.71;79.07
77003;BME280;65939;50.060;14.288;2024-01-10T07:12:34;98534.63;;;-9.68;78.96
77003;BME280;65939;50.060;14.288;2024-01-10T07:14:35;98536.31;;;-9.69;79.04
77003;BME280;65939;50.060;14.288;2024-01-10T07:16:35;98537.16;;;-9.67;78.86
77003;BME280;65939;50.060;14.288;2024-01-10T07:18:36;98536.31;;;-9.67;78.98
77003;BME280;65939;50.060;14.288;2024-01-10T07:20:37;98540.53;;;-9.69;78.66
77003;BME280;65939;50.060;14.288;2024-01-10T07:22:38;98541.34;;;-9.69;78.57
77003;BME280;65939;50.060;14.288;2024-01-10T07:24:44;98543.88;;;-9.72;78.58
77003;BME280;65939;50.060;14.288;2024-01-10T07:26:44;98547.25;;;-9.73;78.54
77003;BME280;65939;50.060;14.288;2024-01-10T07:28:45;98548.13;;;-9.74;78.47
77003;BME280;65939;50.060;14.288;2024-01-10T07:30:47;98544.75;;;-9.74;78.57
77003;BME280;65939;50.060;14.288;2024-01-10T07:32:47;98558.22;;;-9.77;78.50
77003;BME280;65939;50.060;14.288;2024-01-10T07:34:48;98556.53;;;-9.78;78.60
77003;BME280;65939;50.060;14.288;2024-01-10T07:36:49;98561.59;;;-9.78;78.69
77003;BME280;65939;50.060;14.288;2024-01-10T07:38:50;98568.31;;;-9.77;79.02
77003;BME280;65939;50.060;14.288;2024-01-10T07:40:51;98564.97;;;-9.74;78.94
77003;BME280;65939;50.060;14.288;2024-01-10T07:42:51;98570.00;;;-9.68;78.57
77003;BME280;65939;50.060;14.288;2024-01-10T07:44:52;98572.53;;;-9.62;78.78
77003;BME280;65939;50.060;14.288;2024-01-10T07:46:53;98570.84;;;-9.55;78.86
77003;BME280;65939;50.060;14.288;2024-01-10T07:48:55;98569.13;;;-9.53;78.53
77003;BME280;65939;50.060;14.288;2024-01-10T07:50:56;98568.31;;;-9.49;78.77
77003;BME280;65939;50.060;14.288;2024-01-10T07:52:56;98571.66;;;-9.44;78.42
77003;BME280;65939;50.060;14.288;2024-01-10T07:54:57;98574.19;;;-9.40;78.13
77003;BME280;65939;50.060;14.288;2024-01-10T07:56:58;98567.44;;;-9.33;78.25
77003;BME280;65939;50.060;14.288;2024-01-10T07:58:59;98573.34;;;-9.28;78.22
77003;BME280;65939;50.060;14.288;2024-01-10T08:01:00;98569.94;;;-9.22;78.08
77003;BME280;65939;50.060;14.288;2024-01-10T08:03:00;98578.38;;;-9.16;77.86
77003;BME280;65939;50.060;14.288;2024-01-10T08:05:03;98578.38;;;-9.12;77.61
77003;BME280;65939;50.060;14.288;2024-01-10T08:07:10;98581.75;;;-9.10;77.87
77003;BME280;65939;50.060;14.288;2024-01-10T08:09:11;98582.59;;;-9.07;77.82
77003;BME280;65939;50.060;14.288;2024-01-10T08:11:12;98585.94;;;-9.03;77.56
77003;BME280;65939;50.060;14.288;2024-01-10T08:13:12;98579.19;;;-9.01;77.46
77003;BME280;65939;50.060;14.288;2024-01-10T08:15:13;98581.72;;;-8.98;77.32
77003;BME280;65939;50.060;14.288;2024-01-10T08:17:14;98585.06;;;-8.92;77.31
77003;BME280;65939;50.060;14.288;2024-01-10T08:19:15;98583.38;;;-8.88;76.97
77003;BME280;65939;50.060;14.288;2024-01-10T08:21:16;98584.19;;;-8.81;76.96
77003;BME280;65939;50.060;14.288;2024-01-10T08:23:16;98580.81;;;-8.77;77.21
77003;BME280;65939;50.060;14.288;2024-01-10T08:25:18;98580.78;;;-8.73;77.10
77003;BME280;65939;50.060;14.288;2024-01-10T08:27:19;98572.31;;;-8.69;77.02
77003;BME280;65939;50.060;14.288;2024-01-10T08:29:21;98577.38;;;-8.62;76.86
77003;BME280;65939;50.060;14.288;2024-01-10T08:31:21;98574.81;;;-8.59;76.78
77003;BME280;65939;50.060;14.288;2024-01-10T08:33:23;98576.50;;;-8.55;76.51
77003;BME280;65939;50.060;14.288;2024-01-10T08:35:24;98581.53;;;-8.49;76.81
77003;BME280;65939;50.060;14.288;2024-01-10T08:37:24;98579.81;;;-8.44;76.53
77003;BME280;65939;50.060;14.288;2024-01-10T08:39:25;98579.75;;;-8.36;76.28
77003;BME280;65939;50.060;14.288;2024-01-10T08:41:28;98579.72;;;-8.29;76.56
77003;BME280;65939;50.060;14.288;2024-01-10T08:43:29;98580.53;;;-8.24;76.27
77003;BME280;65939;50.060;14.288;2024-01-10T08:45:31;98588.94;;;-8.17;75.94
77003;BME280;65939;50.060;14.288;2024-01-10T08:47:31;98582.13;;;-8.12;75.96
77003;BME280;65939;50.060;14.288;2024-01-10T08:49:33;98587.19;;;-8.06;76.26
77003;BME280;65939;50.060;14.288;2024-01-10T08:51:34;98593.06;;;-7.99;76.11
77003;BME280;65939;50.060;14.288;2024-01-10T08:53:34;98592.19;;;-7.95;76.38
77003;BME280;65939;50.060;14.288;2024-01-10T08:55:35;98583.69;;;-7.91;75.94
77003;BME280;65939;50.060;14.288;2024-01-10T08:57:37;98577.75;;;-7.87;75.86
77003;BME280;65939;50.060;14.288;2024-01-10T08:59:41;98581.94;;;-7.80;76.19
77003;BME280;65939;50.060;14.288;2024-01-10T09:01:42;98584.41;;;-7.71;76.14
77003;BME280;65939;50.060;14.288;2024-01-10T09:03:43;98585.19;;;-7.62;75.94
77003;BME280;65939;50.060;14.288;2024-01-10T09:05:43;98583.44;;;-7.56;75.38
77003;BME280;65939;50.060;14.288;2024-01-10T09:07:44;98580.00;;;-7.49;75.23
77003;BME280;65939;50.060;14.288;2024-01-10T09:09:45;98577.41;;;-7.41;74.73
77003;BME280;65939;50.060;14.288;2024-01-10T09:11:46;98577.31;;;-7.32;74.55
77003;BME280;65939;50.060;14.288;2024-01-10T09:13:48;98574.72;;;-7.24;74.60
77003;BME280;65939;50.060;14.288;2024-01-10T09:15:49;98578.84;;;-7.15;74.56
77003;BME280;65939;50.060;14.288;2024-01-10T09:17:50;98583.00;;;-7.07;74.27
77003;BME280;65939;50.060;14.288;2024-01-10T09:19:52;98582.06;;;-6.98;74.02
77003;BME280;65939;50.060;14.288;2024-01-10T09:21:53;98582.81;;;-6.88;74.12
77003;BME280;65939;50.060;14.288;2024-01-10T09:23:53;98585.22;;;-6.78;74.15
77003;BME280;65939;50.060;14.288;2024-01-10T09:25:56;98591.91;;;-6.70;73.76
77003;BME280;65939;50.060;14.288;2024-01-10T09:27:57;98588.44;;;-6.63;73.77
77003;BME280;65939;50.060;14.288;2024-01-10T09:29:57;98580.75;;;-6.56;73.29
77003;BME280;65939;50.060;14.288;2024-01-10T09:31:58;98578.06;;;-6.45;73.68
77003;BME280;65939;50.060;14.288;2024-01-10T09:33:59;98579.59;;;-6.33;73.20
77003;BME280;65939;50.060;14.288;2024-01-10T09:35:59;98576.94;;;-6.22;72.60
77003;BME280;65939;50.060;14.288;2024-01-10T09:38:01;98575.09;;;-6.11;72.22
77003;BME280;65939;50.060;14.288;2024-01-10T09:40:02;98574.91;;;-5.99;71.98
77003;BME280;65939;50.060;14.288;2024-01-10T09:42:05;98573.88;;;-5.89;71.61
77003;BME280;65939;50.060;14.288;2024-01-10T09:44:06;98577.94;;;-5.77;71.42
77003;BME280;65939;50.060;14.288;2024-01-10T09:46:08;98574.41;;;-5.67;71.14
77003;BME280;65939;50.060;14.288;2024-01-10T09:48:10;98568.31;;;-5.57;71.00
77003;BME280;65939;50.060;14.288;2024-01-10T09:50:11;98555.44;;;-5.47;70.88
77003;BME280;65939;50.060;14.288;2024-01-10T09:52:24;98549.28;;;-5.36;71.13
77003;BME280;65939;50.060;14.288;2024-01-10T09:54:26;98552.47;;;-5.23;70.67
77003;BME280;65939;50.060;14.288;2024-01-10T09:56:30;98553.13;;;-5.13;69.81
77003;BME280;65939;50.060;14.288;2024-01-10T09:58:32;98548.75;;;-5.05;69.95
77003;BME280;65939;50.060;14.288;2024-01-10T10:00:39;98550.31;;;-4.98;70.54
77003;BME280;65939;50.060;14.288;2024-01-10T10:02:41;98551.00;;;-4.90;70.78
77003;BME280;65939;50.060;14.288;2024-01-10T10:05:02;98554.28;;;-4.85;70.47
77003;BME280;65939;50.060;14.288;2024-01-10T10:07:04;98555.06;;;-4.79;70.90
77003;BME280;65939;50.060;14.288;2024-01-10T10:09:07;98549.91;;;-4.76;70.91
77003;BME280;65939;50.060;14.288;2024-01-10T10:11:12;98551.53;;;-4.72;70.64
77003;BME280;65939;50.060;14.288;2024-01-10T10:13:29;98551.38;;;-4.66;70.83
77003;BME280;65939;50.060;14.288;2024-01-10T10:15:30;98551.31;;;-4.63;70.19
77003;BME280;65939;50.060;14.288;2024-01-10T10:17:31;98550.38;;;-4.58;69.78
77003;BME280;65939;50.060;14.288;2024-01-10T10:19:32;98545.97;;;-4.49;69.19
77003;BME280;65939;50.060;14.288;2024-01-10T10:21:33;98548.31;;;-4.40;68.71
77003;BME280;65939;50.060;14.288;2024-01-10T10:23:35;98543.84;;;-4.30;68.45
77003;BME280;65939;50.060;14.288;2024-01-10T10:25:42;98550.50;;;-4.23;67.96
77003;BME280;65939;50.060;14.288;2024-01-10T10:27:48;98547.88;;;-4.19;67.94
77003;BME280;65939;50.060;14.288;2024-01-10T10:29:52;98539.28;;;-4.15;67.83
77003;BME280;65939;50.060;14.288;2024-01-10T10:31:55;98540.09;;;-4.13;67.92
77003;BME280;65939;50.060;14.288;2024-01-10T10:33:56;98543.38;;;-4.07;67.31